Time;durP1;ratioP1;P1;durP2;ratioP2;P2;SDS_P1;SDS_P2;PMS_P1;PMS_P2;Temp;Humidity;BMP_temperature;BMP_pressure;BME280_temperature;BME280_humidity;BME280_pressure;Samples;Min_cycle;Max_cycle;Signal;HPM_P1;HPM_P2
2022/06/02 01:25:02;;;;;;;;;8.00;6.75;;;;;;;;5117489;27;51085;-41
2022/06/02 01:27:52;;;;;;;;;6.00;5.00;;;;;;;;5117076;27;51011;-41
2022/06/02 01:30:45;;;;;;;;;7.50;5.75;;;;;;;;5117096;27;51192;-41
2022/06/02 01:33:59;;;;;;;;;7.25;5.75;;;;;;;;5116932;27;51742;-41
2022/06/02 01:37:07;;;;;;;;;9.25;5.75;;;;;;;;5053802;27;51125;-41
2022/06/02 01:40:06;;;;;;;;;9.25;6.50;;;;;;;;5117170;27;51056;-42
2022/06/02 01:43:03;;;;;;;;;4.75;4.75;;;;;;;;5116830;27;51481;-43
2022/06/02 01:49:21;;;;;;;;;7.00;6.00;;;;;;;;4993020;28;51214;-42
2022/06/02 01:52:24;;;;;;;;;9.50;4.50;;;;;;;;4993073;28;51125;-42
2022/06/02 01:55:10;;;;;;;;;8.75;7.75;;;;;;;;5073876;28;51597;-43
2022/06/02 01:58:07;;;;;;;;;7.00;6.75;;;;;;;;5073555;28;51098;-44
2022/06/02 02:01:18;;;;;;;;;9.75;8.75;;;;;;;;5073336;28;51211;-40
2022/06/02 02:04:24;;;;;;;;;7.00;6.00;;;;;;;;5072863;28;51123;-41
2022/06/02 02:07:20;;;;;;;;;11.50;6.00;;;;;;;;5074135;28;51055;-41
2022/06/02 02:10:23;;;;;;;;;6.00;6.00;;;;;;;;5073498;28;51202;-42
2022/06/02 02:13:40;;;;;;;;;8.75;5.25;;;;;;;;5073772;28;51552;-43
2022/06/02 02:16:51;;;;;;;;;7.50;7.00;;;;;;;;5031041;28;51496;-43
2022/06/02 02:19:54;;;;;;;;;11.25;5.50;;;;;;;;5071824;28;51055;-44
2022/06/02 02:22:48;;;;;;;;;6.25;6.25;;;;;;;;5072129;28;51241;-41
2022/06/02 02:25:49;;;;;;;;;9.00;7.00;;;;;;;;5079649;27;51158;-43
2022/06/02 02:29:00;;;;;;;;;11.25;10.00;;;;;;;;5116788;27;51486;-43
2022/06/02 02:32:02;;;;;;;;;10.75;10.00;;;;;;;;5108595;27;51096;-41
2022/06/02 02:35:06;;;;;;;;;13.50;11.00;;;;;;;;5102301;27;51112;-44
2022/06/02 02:38:03;;;;;;;;;13.00;12.50;;;;;;;;5102733;27;51182;-41
2022/06/02 02:41:01;;;;;;;;;13.25;11.75;;;;;;;;5102162;27;51492;-42
2022/06/02 02:44:09;;;;;;;;;15.25;9.50;;;;;;;;5101704;27;51251;-43
2022/06/02 02:47:02;;;;;;;;;8.25;8.00;;;;;;;;5102703;27;51167;-42
2022/06/02 02:50:06;;;;;;;;;8.75;6.50;;;;;;;;5096659;27;51137;-42
2022/06/02 02:53:09;;;;;;;;;10.75;9.00;;;;;;;;5102201;27;51039;-41
2022/06/02 02:56:11;;;;;;;;;15.50;13.50;;;;;;;;5102561;27;51152;-40
2022/06/02 02:59:02;;;;;;;;;13.00;12.00;;;;;;;;5102135;27;51131;-42
2022/06/02 03:01:52;;;;;;;;;19.50;16.50;;;;;;;;5101750;27;51263;-44
2022/06/02 03:04:58;;;;;;;;;26.00;25.25;;;;;;;;5101335;27;51104;-44
2022/06/02 03:07:47;;;;;;;;;27.00;21.00;;;;;;;;5101469;27;51622;-40
2022/06/02 03:10:35;;;;;;;;;29.25;24.00;;;;;;;;5086125;27;51151;-41
2022/06/02 03:13:32;;;;;;;;;31.75;25.25;;;;;;;;5102199;27;51284;-42
2022/06/02 03:16:18;;;;;;;;;27.00;24.50;;;;;;;;5101971;27;51532;-41
2022/06/02 03:19:21;;;;;;;;;24.67;23.33;;;;;;;;5101930;27;51164;-43
2022/06/02 03:22:26;;;;;;;;;28.75;22.25;;;;;;;;5101088;27;51457;-45
2022/06/02 03:25:23;;;;;;;;;32.00;29.00;;;;;;;;5101513;27;51159;-41
2022/06/02 03:28:28;;;;;;;;;33.00;27.50;;;;;;;;5101654;27;51118;-43
2022/06/02 03:31:15;;;;;;;;;28.25;24.25;;;;;;;;5101598;27;51417;-41
2022/06/02 03:34:26;;;;;;;;;29.00;25.50;;;;;;;;5101372;27;51567;-41
2022/06/02 03:37:20;;;;;;;;;30.75;22.75;;;;;;;;5080731;27;51172;-45
2022/06/02 03:42:51;;;;;;;;;30.25;28.00;;;;;;;;5016444;28;51796;-41
2022/06/02 03:45:41;;;;;;;;;29.75;27.00;;;;;;;;5017907;28;51042;-41
2022/06/02 03:48:40;;;;;;;;;31.25;28.25;;;;;;;;5017827;28;51240;-41
2022/06/02 03:51:34;;;;;;;;;33.25;26.50;;;;;;;;5017589;28;51065;-40
2022/06/02 03:54:34;;;;;;;;;24.50;22.00;;;;;;;;5017686;28;51498;-41
2022/06/02 03:57:24;;;;;;;;;30.75;24.50;;;;;;;;5017024;28;51579;-41
2022/06/02 04:00:19;;;;;;;;;29.25;25.25;;;;;;;;5017162;28;51645;-41
2022/06/02 04:03:06;;;;;;;;;28.50;24.75;;;;;;;;5017176;28;51082;-43
2022/06/02 04:06:08;;;;;;;;;30.50;29.75;;;;;;;;5017576;28;51113;-41
2022/06/02 04:09:11;;;;;;;;;31.50;27.00;;;;;;;;5017356;28;51209;-43
2022/06/02 04:18:20;;;;;;;;;28.00;26.25;;;;;;;;4938454;28;51150;-42
2022/06/02 04:21:36;;;;;;;;;37.00;30.75;;;;;;;;4987928;28;51174;-41
2022/06/02 04:24:29;;;;;;;;;35.75;32.25;;;;;;;;4987304;28;51594;-40
2022/06/02 04:27:34;;;;;;;;;34.25;30.25;;;;;;;;5016505;28;51433;-43
2022/06/02 04:30:38;;;;;;;;;37.50;30.50;;;;;;;;5016690;28;51216;-43
2022/06/02 04:33:33;;;;;;;;;31.75;29.25;;;;;;;;5017170;28;51167;-43
2022/06/02 04:36:31;;;;;;;;;32.75;28.75;;;;;;;;5017143;28;52077;-41
2022/06/02 04:39:18;;;;;;;;;35.00;28.50;;;;;;;;5017295;28;51138;-40
2022/06/02 04:42:20;;;;;;;;;35.25;29.25;;;;;;;;5017012;28;51761;-43
2022/06/02 04:45:18;;;;;;;;;30.25;26.00;;;;;;;;5016668;28;51088;-42
2022/06/02 04:48:07;;;;;;;;;32.00;25.25;;;;;;;;5017213;28;51089;-41
2022/06/02 04:51:29;;;;;;;;;27.00;22.75;;;;;;;;5016494;28;51031;-42
2022/06/02 04:54:36;;;;;;;;;30.00;25.00;;;;;;;;5029936;27;51629;-45
2022/06/02 04:57:39;;;;;;;;;30.25;22.25;;;;;;;;5100235;27;51056;-43
2022/06/02 05:00:41;;;;;;;;;28.50;25.25;;;;;;;;5099790;27;51136;-44
2022/06/02 05:03:50;;;;;;;;;30.25;28.75;;;;;;;;5100067;27;51163;-43
2022/06/02 05:06:40;;;;;;;;;31.25;28.25;;;;;;;;5100049;27;51236;-43
2022/06/02 05:12:36;;;;;;;;;44.75;34.00;;;;;;;;5016003;28;51230;-41
2022/06/02 05:15:30;;;;;;;;;38.00;32.50;;;;;;;;5017099;28;51189;-45
2022/06/02 05:18:37;;;;;;;;;47.00;37.25;;;;;;;;5015312;28;51372;-42
2022/06/02 05:21:35;;;;;;;;;29.25;23.50;;;;;;;;5014667;28;51653;-40
2022/06/02 05:24:49;;;;;;;;;27.75;26.00;;;;;;;;5015661;28;51252;-45
2022/06/02 05:27:52;;;;;;;;;26.25;25.00;;;;;;;;4948060;28;51208;-41
2022/06/02 05:30:57;;;;;;;;;32.50;29.25;;;;;;;;4990584;28;51138;-43
2022/06/02 05:33:59;;;;;;;;;36.75;30.25;;;;;;;;4996736;28;51063;-42
2022/06/02 05:36:57;;;;;;;;;33.75;29.25;;;;;;;;4996196;28;51059;-42
2022/06/02 05:39:47;;;;;;;;;43.50;35.00;;;;;;;;4996199;28;51310;-42
2022/06/02 05:42:45;;;;;;;;;51.50;43.00;;;;;;;;4996754;28;51512;-44
2022/06/02 05:45:30;;;;;;;;;52.00;43.50;;;;;;;;4996465;28;51484;-41
2022/06/02 05:48:23;;;;;;;;;55.75;43.75;;;;;;;;4984798;28;51731;-45
2022/06/02 05:51:21;;;;;;;;;51.00;41.25;;;;;;;;5077938;28;51149;-42
2022/06/02 05:54:26;;;;;;;;;53.75;40.00;;;;;;;;5079301;28;51109;-41
2022/06/02 05:57:41;;;;;;;;;54.00;42.25;;;;;;;;4997508;28;51484;-44
2022/06/02 06:00:45;;;;;;;;;48.50;38.00;;;;;;;;5038800;28;51080;-41
2022/06/02 06:03:50;;;;;;;;;43.50;33.00;;;;;;;;5078802;28;51529;-44
2022/06/02 06:06:54;;;;;;;;;43.00;33.50;;;;;;;;5079866;27;51117;-43
2022/06/02 06:09:55;;;;;;;;;33.25;29.25;;;;;;;;5083141;27;51256;-43
2022/06/02 06:12:47;;;;;;;;;36.75;31.25;;;;;;;;5081686;27;51652;-42
2022/06/02 06:15:51;;;;;;;;;42.25;34.50;;;;;;;;5082415;27;51839;-43
2022/06/02 06:18:48;;;;;;;;;36.00;31.25;;;;;;;;5067026;27;51085;-41
2022/06/02 06:21:52;;;;;;;;;43.75;34.50;;;;;;;;5082499;27;51192;-46
2022/06/02 06:25:04;;;;;;;;;46.50;38.75;;;;;;;;5081576;27;51440;-43
2022/06/02 06:28:12;;;;;;;;;40.25;33.00;;;;;;;;5082434;27;51127;-42
2022/06/02 06:30:59;;;;;;;;;39.00;31.75;;;;;;;;5082053;27;51704;-45
2022/06/02 06:34:21;;;;;;;;;35.75;30.75;;;;;;;;5082119;27;51145;-42
2022/06/02 06:37:10;;;;;;;;;31.25;28.50;;;;;;;;4998304;28;51134;-42
2022/06/02 06:40:14;;;;;;;;;36.75;29.25;;;;;;;;5079478;27;51043;-45
2022/06/02 06:43:19;;;;;;;;;35.50;28.75;;;;;;;;5082228;27;51089;-43
2022/06/02 06:46:17;;;;;;;;;33.00;30.00;;;;;;;;5072382;27;51089;-44
2022/06/02 06:49:24;;;;;;;;;37.00;31.25;;;;;;;;5077689;27;51294;-41
2022/06/02 06:52:26;;;;;;;;;35.00;25.50;;;;;;;;4997064;28;52254;-42
2022/06/02 06:55:32;;;;;;;;;25.50;22.75;;;;;;;;5075231;27;51178;-41
2022/06/02 06:58:17;;;;;;;;;32.75;26.50;;;;;;;;5079897;27;51393;-43
2022/06/02 07:01:24;;;;;;;;;29.00;23.25;;;;;;;;5080703;27;51131;-42
2022/06/02 07:04:16;;;;;;;;;23.50;20.00;;;;;;;;5081267;27;51146;-45
2022/06/02 07:07:12;;;;;;;;;27.75;20.50;;;;;;;;5081003;27;51090;-45
2022/06/02 07:10:15;;;;;;;;;23.75;21.00;;;;;;;;5081640;27;51149;-45
2022/06/02 07:13:01;;;;;;;;;28.25;25.00;;;;;;;;5080047;27;51187;-43
2022/06/02 07:16:05;;;;;;;;;26.50;21.25;;;;;;;;5080998;27;51150;-42
2022/06/02 07:19:00;;;;;;;;;23.00;20.00;;;;;;;;5080734;27;51432;-44
2022/06/02 07:22:01;;;;;;;;;23.50;20.50;;;;;;;;5081368;27;51158;-45
2022/06/02 07:32:14;;;;;;;;;27.00;23.50;;;;;;;;5060756;28;51108;-43
2022/06/02 07:35:05;;;;;;;;;19.50;18.50;;;;;;;;5056886;28;51116;-45
2022/06/02 07:38:13;;;;;;;;;18.50;17.00;;;;;;;;5044933;28;51475;-52
2022/06/02 07:41:16;;;;;;;;;19.25;18.50;;;;;;;;4991921;28;51495;-48
2022/06/02 07:44:07;;;;;;;;;19.75;18.00;;;;;;;;5060894;28;51078;-50
2022/06/02 07:47:00;;;;;;;;;19.25;17.25;;;;;;;;5052982;28;51558;-56
2022/06/02 07:50:04;;;;;;;;;14.25;14.25;;;;;;;;5058127;28;51275;-52
2022/06/02 07:53:00;;;;;;;;;21.25;15.00;;;;;;;;5059948;28;51101;-50
2022/06/02 07:56:18;;;;;;;;;17.25;15.00;;;;;;;;5060022;28;51330;-50
2022/06/02 07:59:32;;;;;;;;;13.25;13.25;;;;;;;;5060469;28;51011;-51
2022/06/02 08:02:45;;;;;;;;;19.75;18.25;;;;;;;;5056083;28;51099;-51
2022/06/02 08:05:48;;;;;;;;;16.25;13.75;;;;;;;;5060455;28;51452;-51
2022/06/02 08:08:49;;;;;;;;;11.75;10.00;;;;;;;;5059626;28;51189;-49
2022/06/02 08:12:01;;;;;;;;;10.50;10.50;;;;;;;;5031581;28;51122;-53
2022/06/02 08:14:54;;;;;;;;;9.75;9.75;;;;;;;;5052968;28;51068;-53
2022/06/02 08:17:38;;;;;;;;;10.75;10.75;;;;;;;;5059918;28;51135;-53
2022/06/02 08:20:28;;;;;;;;;13.75;12.00;;;;;;;;5058671;28;51108;-51
2022/06/02 08:23:54;;;;;;;;;12.75;11.75;;;;;;;;5059841;28;51084;-53
2022/06/02 08:26:50;;;;;;;;;11.25;11.25;;;;;;;;5032387;28;51111;-52
2022/06/02 08:29:49;;;;;;;;;12.50;9.75;;;;;;;;5055162;28;51191;-52
2022/06/02 08:32:44;;;;;;;;;15.50;12.75;;;;;;;;5059907;28;51267;-54
2022/06/02 08:35:45;;;;;;;;;15.25;11.00;;;;;;;;5059542;28;51127;-53
2022/06/02 08:38:29;;;;;;;;;15.75;12.50;;;;;;;;5059968;28;50995;-52
2022/06/02 08:41:49;;;;;;;;;18.25;15.25;;;;;;;;5059312;28;51081;-53
2022/06/02 08:44:52;;;;;;;;;13.50;13.50;;;;;;;;5059647;28;51026;-49
2022/06/02 08:48:02;;;;;;;;;17.00;15.25;;;;;;;;5059470;28;51419;-53
2022/06/02 08:50:51;;;;;;;;;13.50;10.25;;;;;;;;5058462;28;51041;-50
2022/06/02 08:54:12;;;;;;;;;11.25;8.50;;;;;;;;5059512;28;50989;-50
2022/06/02 08:57:14;;;;;;;;;16.25;12.50;;;;;;;;5059178;28;51196;-51
2022/06/02 09:00:37;;;;;;;;;11.75;9.50;;;;;;;;5059157;28;51453;-51
2022/06/02 09:03:41;;;;;;;;;10.50;8.75;;;;;;;;4977020;28;51113;-52
2022/06/02 09:06:43;;;;;;;;;14.50;12.50;;;;;;;;4977620;28;51195;-50
2022/06/02 09:10:01;;;;;;;;;11.50;8.50;;;;;;;;5051990;28;51541;-52
2022/06/02 09:12:55;;;;;;;;;14.75;12.00;;;;;;;;5026020;28;51201;-52
2022/06/02 09:15:58;;;;;;;;;15.25;10.00;;;;;;;;5045136;28;51679;-51
2022/06/02 09:18:49;;;;;;;;;13.00;9.75;;;;;;;;5058886;28;51133;-50
2022/06/02 09:21:45;;;;;;;;;11.75;11.75;;;;;;;;5043561;28;51530;-51
2022/06/02 09:24:48;;;;;;;;;12.25;10.50;;;;;;;;5058864;28;51100;-51
2022/06/02 09:27:55;;;;;;;;;11.25;8.50;;;;;;;;5059951;28;51186;-51
2022/06/02 09:30:59;;;;;;;;;12.75;12.00;;;;;;;;5063824;28;51143;-50
2022/06/02 09:33:59;;;;;;;;;12.25;11.25;;;;;;;;5077564;28;51201;-45
2022/06/02 09:37:34;;;;;;;;;12.75;10.75;;;;;;;;5079053;28;51189;-50
2022/06/02 09:40:36;;;;;;;;;14.50;11.50;;;;;;;;5013930;28;51274;-51
2022/06/02 09:43:40;;;;;;;;;10.75;9.50;;;;;;;;5030428;27;51397;-54
2022/06/02 09:46:24;;;;;;;;;14.00;10.50;;;;;;;;5083226;27;51189;-51
2022/06/02 09:49:26;;;;;;;;;15.00;9.75;;;;;;;;5081713;27;51066;-52
2022/06/02 09:52:31;;;;;;;;;11.50;9.00;;;;;;;;5078849;27;50992;-50
2022/06/02 09:55:43;;;;;;;;;10.25;10.00;;;;;;;;5082200;27;51482;-49
2022/06/02 09:58:50;;;;;;;;;10.75;9.00;;;;;;;;5080486;27;51104;-46
2022/06/02 10:02:01;;;;;;;;;12.75;9.75;;;;;;;;5080318;27;50996;-52
2022/06/02 10:05:03;;;;;;;;;11.75;9.00;;;;;;;;5081221;27;51098;-50
2022/06/02 10:08:02;;;;;;;;;11.00;8.25;;;;;;;;5082338;27;51115;-51
2022/06/02 10:10:56;;;;;;;;;11.50;9.75;;;;;;;;5081043;27;51449;-51
2022/06/02 10:14:03;;;;;;;;;11.75;10.00;;;;;;;;5079711;27;51105;-52
2022/06/02 10:17:11;;;;;;;;;6.75;6.25;;;;;;;;5077705;27;51588;-51
2022/06/02 10:19:55;;;;;;;;;9.75;9.75;;;;;;;;5055068;27;51162;-49
2022/06/02 10:22:46;;;;;;;;;13.50;10.50;;;;;;;;5080390;27;51218;-53
2022/06/02 10:25:51;;;;;;;;;15.25;13.25;;;;;;;;5077891;27;51082;-49
2022/06/02 10:28:54;;;;;;;;;11.75;10.50;;;;;;;;5062490;28;51194;-51
2022/06/02 10:31:38;;;;;;;;;11.75;10.25;;;;;;;;5059495;28;51776;-46
2022/06/02 10:34:58;;;;;;;;;12.00;11.75;;;;;;;;5060489;28;51084;-49
2022/06/02 10:38:02;;;;;;;;;12.00;10.50;;;;;;;;5061820;28;51624;-52
2022/06/02 10:40:48;;;;;;;;;11.00;9.50;;;;;;;;5059685;28;51242;-53
2022/06/02 10:43:47;;;;;;;;;16.25;10.25;;;;;;;;5059370;28;51188;-50
2022/06/02 10:46:33;;;;;;;;;13.25;8.50;;;;;;;;5061677;28;51176;-50
2022/06/02 10:49:38;;;;;;;;;12.25;10.75;;;;;;;;5061097;28;51100;-48
2022/06/02 10:52:42;;;;;;;;;10.50;10.25;;;;;;;;5060365;28;51279;-52
2022/06/02 10:55:45;;;;;;;;;16.25;13.00;;;;;;;;5061136;28;50989;-47
2022/06/02 10:58:50;;;;;;;;;11.25;7.50;;;;;;;;5061164;28;51011;-50
2022/06/02 11:01:58;;;;;;;;;11.75;9.50;;;;;;;;5061225;28;52287;-46
2022/06/02 11:04:59;;;;;;;;;14.00;11.75;;;;;;;;5027829;28;51582;-48
2022/06/02 11:08:06;;;;;;;;;12.25;10.25;;;;;;;;5061340;28;51023;-54
2022/06/02 11:11:08;;;;;;;;;13.50;11.25;;;;;;;;5061149;28;51114;-46
2022/06/02 11:14:03;;;;;;;;;14.50;12.25;;;;;;;;5060749;28;51153;-55
2022/06/02 11:17:03;;;;;;;;;13.75;12.75;;;;;;;;5055437;28;51295;-49
2022/06/02 11:20:07;;;;;;;;;12.50;11.00;;;;;;;;5053892;28;51159;-49
2022/06/02 11:23:12;;;;;;;;;12.00;10.25;;;;;;;;5058316;28;51204;-53
2022/06/02 11:26:05;;;;;;;;;9.00;6.75;;;;;;;;5027364;28;51561;-49
2022/06/02 11:28:53;;;;;;;;;7.00;6.75;;;;;;;;5058300;28;51065;-48
2022/06/02 11:31:40;;;;;;;;;5.00;4.00;;;;;;;;5061363;28;51404;-49
2022/06/02 11:34:34;;;;;;;;;8.00;5.00;;;;;;;;5060922;28;51167;-51
2022/06/02 11:37:21;;;;;;;;;5.50;5.50;;;;;;;;5060524;28;51396;-45
2022/06/02 11:40:11;;;;;;;;;10.00;8.00;;;;;;;;5056979;28;51116;-53
2022/06/02 11:43:04;;;;;;;;;9.25;6.25;;;;;;;;5060928;27;51369;-52
2022/06/02 11:46:07;;;;;;;;;6.25;5.00;;;;;;;;5060413;27;51139;-46
2022/06/02 11:49:02;;;;;;;;;6.25;5.75;;;;;;;;5046130;27;51154;-53
2022/06/02 11:52:09;;;;;;;;;6.00;6.00;;;;;;;;5057592;28;51997;-51
2022/06/02 11:55:12;;;;;;;;;11.50;7.00;;;;;;;;5058994;28;51268;-52
2022/06/02 11:58:26;;;;;;;;;8.00;5.00;;;;;;;;5042866;28;51078;-49
2022/06/02 12:01:29;;;;;;;;;7.00;4.00;;;;;;;;5040815;28;51077;-48
2022/06/02 12:04:34;;;;;;;;;5.75;5.00;;;;;;;;5042325;28;51131;-48
2022/06/02 12:07:19;;;;;;;;;5.25;4.00;;;;;;;;5043300;28;51210;-52
2022/06/02 12:10:19;;;;;;;;;6.25;6.25;;;;;;;;5060741;28;51517;-52
2022/06/02 12:13:21;;;;;;;;;5.00;5.00;;;;;;;;5055548;28;51037;-52
2022/06/02 12:16:30;;;;;;;;;7.25;6.00;;;;;;;;5056463;28;51158;-53
2022/06/02 12:19:20;;;;;;;;;6.00;6.00;;;;;;;;5059770;28;51491;-48
2022/06/02 12:22:24;;;;;;;;;10.00;8.00;;;;;;;;5060068;28;51115;-49
2022/06/02 12:25:08;;;;;;;;;6.75;6.25;;;;;;;;5060095;28;51118;-47
2022/06/02 12:27:55;;;;;;;;;5.75;5.75;;;;;;;;5060098;28;51040;-50
2022/06/02 12:30:50;;;;;;;;;6.50;6.50;;;;;;;;5056894;28;51462;-48
2022/06/02 12:33:53;;;;;;;;;6.00;6.00;;;;;;;;5059867;28;51069;-51
2022/06/02 12:37:01;;;;;;;;;9.75;7.00;;;;;;;;5059695;28;51483;-48
2022/06/02 12:39:55;;;;;;;;;4.75;4.50;;;;;;;;5059757;28;51243;-52
2022/06/02 12:42:49;;;;;;;;;8.25;4.00;;;;;;;;5059995;28;51114;-50
2022/06/02 12:45:48;;;;;;;;;6.50;5.25;;;;;;;;5059459;28;51551;-48
2022/06/02 12:48:51;;;;;;;;;6.25;5.75;;;;;;;;5059596;28;51181;-51
2022/06/02 12:51:53;;;;;;;;;8.00;5.00;;;;;;;;5059557;28;51493;-52
2022/06/02 12:55:18;;;;;;;;;7.25;5.50;;;;;;;;5058640;28;51426;-50
2022/06/02 12:58:28;;;;;;;;;5.00;4.50;;;;;;;;5058244;28;51454;-51
2022/06/02 13:01:31;;;;;;;;;7.75;5.25;;;;;;;;5051656;28;51254;-50
2022/06/02 13:04:21;;;;;;;;;6.25;4.50;;;;;;;;5058191;28;51059;-48
2022/06/02 13:07:24;;;;;;;;;9.00;6.00;;;;;;;;5057590;28;51157;-48
2022/06/02 13:10:27;;;;;;;;;8.50;4.75;;;;;;;;5058310;28;51150;-46
2022/06/02 13:13:36;;;;;;;;;7.00;5.50;;;;;;;;5057802;28;51202;-50
2022/06/02 13:16:36;;;;;;;;;5.25;4.00;;;;;;;;5059210;28;51459;-49
2022/06/02 13:19:23;;;;;;;;;4.50;4.50;;;;;;;;5057986;28;51262;-51
2022/06/02 13:22:20;;;;;;;;;4.50;4.50;;;;;;;;5059369;28;51111;-52
2022/06/02 13:25:10;;;;;;;;;4.75;4.50;;;;;;;;5059119;28;51088;-54
2022/06/02 13:28:10;;;;;;;;;8.50;7.00;;;;;;;;5077218;28;51016;-50
2022/06/02 13:31:10;;;;;;;;;9.50;6.75;;;;;;;;5079557;28;51070;-49
2022/06/02 13:34:23;;;;;;;;;7.75;7.75;;;;;;;;5079098;28;51111;-50
2022/06/02 13:37:26;;;;;;;;;9.50;7.50;;;;;;;;5067965;28;51453;-48
2022/06/02 13:40:13;;;;;;;;;8.50;8.00;;;;;;;;5044722;28;51119;-50
2022/06/02 13:42:58;;;;;;;;;8.00;7.75;;;;;;;;5057626;28;51169;-52
2022/06/02 13:46:01;;;;;;;;;10.25;8.50;;;;;;;;5063689;28;51048;-51
2022/06/02 13:48:48;;;;;;;;;10.75;8.00;;;;;;;;5064971;27;51089;-49
2022/06/02 13:51:51;;;;;;;;;7.25;7.00;;;;;;;;5055567;28;51826;-48
2022/06/02 13:58:05;;;;;;;;;6.25;6.00;;;;;;;;5058499;28;51153;-51
2022/06/02 14:01:07;;;;;;;;;9.75;8.25;;;;;;;;5056985;28;51516;-47
2022/06/02 14:04:10;;;;;;;;;7.75;7.00;;;;;;;;5057811;28;51112;-48
2022/06/02 14:07:10;;;;;;;;;9.25;8.00;;;;;;;;5058033;28;51148;-48
2022/06/02 14:10:13;;;;;;;;;10.25;7.25;;;;;;;;5058083;28;51193;-50
2022/06/02 14:13:03;;;;;;;;;8.25;7.75;;;;;;;;5057727;28;51225;-50
2022/06/02 14:16:07;;;;;;;;;6.75;6.75;;;;;;;;5058677;28;51156;-51
2022/06/02 14:18:52;;;;;;;;;9.75;8.75;;;;;;;;5062889;28;51477;-49
2022/06/02 14:21:56;;;;;;;;;11.50;9.25;;;;;;;;5077614;28;51063;-51
2022/06/02 14:25:05;;;;;;;;;9.00;7.50;;;;;;;;5078671;28;51023;-53
2022/06/02 14:28:08;;;;;;;;;9.50;8.50;;;;;;;;5079540;27;51619;-47
2022/06/02 14:31:11;;;;;;;;;11.50;7.50;;;;;;;;5075358;27;51223;-50
2022/06/02 14:34:11;;;;;;;;;12.25;7.75;;;;;;;;5061246;28;51070;-49
2022/06/02 14:37:10;;;;;;;;;6.00;6.00;;;;;;;;5061105;28;51522;-46
2022/06/02 14:39:58;;;;;;;;;9.75;7.50;;;;;;;;5061017;28;51054;-46
2022/06/02 14:43:07;;;;;;;;;7.50;6.25;;;;;;;;5021415;28;51063;-52
2022/06/02 14:46:07;;;;;;;;;9.00;7.25;;;;;;;;5061841;28;51034;-48
2022/06/02 14:49:13;;;;;;;;;8.25;7.25;;;;;;;;5061955;28;51092;-47
2022/06/02 14:52:13;;;;;;;;;8.75;6.75;;;;;;;;5061384;28;51089;-48
2022/06/02 14:55:01;;;;;;;;;10.25;6.25;;;;;;;;5061723;28;51178;-48
2022/06/02 14:58:05;;;;;;;;;12.00;9.25;;;;;;;;5062064;28;51200;-49
2022/06/02 15:01:09;;;;;;;;;9.50;7.50;;;;;;;;5059183;28;51552;-46
2022/06/02 15:04:00;;;;;;;;;11.25;9.25;;;;;;;;5061468;28;51464;-49
2022/06/02 15:07:03;;;;;;;;;9.25;9.00;;;;;;;;5064991;27;51149;-51
2022/06/02 15:10:01;;;;;;;;;13.50;11.50;;;;;;;;5082260;27;51125;-52
2022/06/02 15:12:51;;;;;;;;;7.50;7.25;;;;;;;;5080997;27;51074;-51
2022/06/02 15:15:45;;;;;;;;;10.00;8.75;;;;;;;;5081547;27;51173;-47
2022/06/02 15:18:49;;;;;;;;;10.50;7.50;;;;;;;;5081720;27;51457;-53
2022/06/02 15:21:46;;;;;;;;;8.50;7.50;;;;;;;;5065153;27;51255;-52
2022/06/02 15:25:02;;;;;;;;;11.25;8.00;;;;;;;;5060472;28;51095;-49
2022/06/02 15:28:16;;;;;;;;;10.25;7.25;;;;;;;;5009323;28;51483;-49
2022/06/02 15:31:08;;;;;;;;;10.50;7.25;;;;;;;;5044959;27;51244;-48
2022/06/02 15:34:14;;;;;;;;;6.50;5.00;;;;;;;;5080753;27;51058;-47
2022/06/02 15:37:16;;;;;;;;;9.25;8.50;;;;;;;;5074885;27;51114;-47
2022/06/02 15:40:20;;;;;;;;;9.00;6.75;;;;;;;;5079820;27;51547;-51
2022/06/02 15:43:29;;;;;;;;;8.50;7.00;;;;;;;;5078526;27;51189;-46
2022/06/02 15:46:33;;;;;;;;;7.75;7.75;;;;;;;;5079966;27;51572;-53
2022/06/02 15:49:56;;;;;;;;;8.50;8.25;;;;;;;;5080383;27;51110;-53
2022/06/02 15:52:43;;;;;;;;;6.00;5.75;;;;;;;;5015984;28;51072;-49
2022/06/02 15:55:53;;;;;;;;;8.50;7.25;;;;;;;;5010631;28;51491;-50
2022/06/02 15:58:48;;;;;;;;;9.50;7.25;;;;;;;;5078975;27;51426;-50
2022/06/02 16:01:50;;;;;;;;;8.25;7.75;;;;;;;;5073342;27;51158;-47
2022/06/02 16:04:37;;;;;;;;;13.00;7.25;;;;;;;;5074246;27;51131;-50
2022/06/02 16:07:40;;;;;;;;;8.00;8.00;;;;;;;;5070819;27;51429;-53
2022/06/02 16:14:05;;;;;;;;;7.25;6.50;;;;;;;;5080530;27;51127;-51
2022/06/02 16:17:09;;;;;;;;;13.75;6.75;;;;;;;;5079467;27;51481;-50
2022/06/02 16:20:11;;;;;;;;;7.25;4.75;;;;;;;;5079456;27;51079;-48
2022/06/02 16:23:00;;;;;;;;;12.00;10.75;;;;;;;;5080298;27;51076;-51
2022/06/02 16:25:51;;;;;;;;;10.50;9.25;;;;;;;;5079749;27;51083;-50
2022/06/02 16:28:57;;;;;;;;;11.00;7.50;;;;;;;;5100209;27;51237;-52
2022/06/02 16:31:49;;;;;;;;;9.25;9.25;;;;;;;;5100947;27;51108;-51
2022/06/02 16:34:53;;;;;;;;;8.25;6.75;;;;;;;;5100711;27;51345;-50
2022/06/02 16:37:57;;;;;;;;;14.25;9.00;;;;;;;;5100543;27;51146;-50
2022/06/02 16:40:59;;;;;;;;;7.00;4.75;;;;;;;;5100785;27;51182;-49
2022/06/02 16:44:13;;;;;;;;;12.50;11.75;;;;;;;;5100506;27;51434;-52
2022/06/02 16:47:17;;;;;;;;;8.25;8.25;;;;;;;;5093395;27;51003;-52
2022/06/02 16:50:32;;;;;;;;;8.25;8.25;;;;;;;;5099737;27;51179;-47
2022/06/02 16:56:35;;;;;;;;;11.00;8.00;;;;;;;;5100096;27;51101;-47
2022/06/02 16:59:39;;;;;;;;;5.75;4.50;;;;;;;;5100516;27;51151;-52
2022/06/02 17:02:36;;;;;;;;;11.75;7.25;;;;;;;;5099395;27;51128;-50
2022/06/02 17:05:29;;;;;;;;;8.00;7.25;;;;;;;;5099378;27;51196;-50
2022/06/02 17:08:30;;;;;;;;;16.25;9.00;;;;;;;;5100486;27;51855;-48
2022/06/02 17:11:40;;;;;;;;;11.75;9.75;;;;;;;;5101518;27;51191;-47
2022/06/02 17:14:31;;;;;;;;;11.00;11.00;;;;;;;;5100516;27;51239;-50
2022/06/02 17:17:24;;;;;;;;;9.00;9.00;;;;;;;;5099748;27;51358;-48
2022/06/02 17:20:08;;;;;;;;;9.25;8.00;;;;;;;;5100319;27;51138;-49
2022/06/02 17:23:19;;;;;;;;;12.25;8.50;;;;;;;;5098923;27;51125;-46
2022/06/02 17:26:22;;;;;;;;;12.50;11.00;;;;;;;;5099599;27;51163;-50
2022/06/02 17:29:07;;;;;;;;;9.00;8.75;;;;;;;;5097617;27;51002;-49
2022/06/02 17:32:10;;;;;;;;;11.75;9.25;;;;;;;;5098157;27;51125;-49
2022/06/02 17:35:08;;;;;;;;;11.25;8.00;;;;;;;;5098831;27;51156;-48
2022/06/02 17:37:58;;;;;;;;;11.00;9.25;;;;;;;;5098196;27;51200;-47
2022/06/02 17:40:50;;;;;;;;;11.75;8.00;;;;;;;;5096906;27;51106;-50
2022/06/02 17:43:45;;;;;;;;;11.50;9.25;;;;;;;;5098346;27;51000;-51
2022/06/02 17:47:00;;;;;;;;;11.25;11.00;;;;;;;;5097892;27;51022;-53
2022/06/02 17:50:03;;;;;;;;;12.75;10.00;;;;;;;;5098355;27;51136;-51
2022/06/02 17:53:21;;;;;;;;;15.25;11.75;;;;;;;;5098037;27;51020;-47
2022/06/02 17:56:06;;;;;;;;;9.25;9.00;;;;;;;;5062432;27;52128;-52
2022/06/02 17:59:06;;;;;;;;;13.50;8.75;;;;;;;;5097585;27;51230;-50
2022/06/02 18:02:00;;;;;;;;;11.75;10.75;;;;;;;;5097450;27;51240;-50
2022/06/02 18:05:02;;;;;;;;;9.50;8.75;;;;;;;;5100518;27;51102;-50
2022/06/02 18:07:50;;;;;;;;;14.25;9.25;;;;;;;;5102476;27;51084;-48
2022/06/02 18:10:53;;;;;;;;;12.00;11.00;;;;;;;;5101930;27;51092;-51
2022/06/02 18:13:56;;;;;;;;;15.00;11.50;;;;;;;;5101153;27;51340;-53
2022/06/02 18:16:46;;;;;;;;;9.00;9.00;;;;;;;;5100506;27;51110;-48
2022/06/02 18:19:49;;;;;;;;;5.75;5.75;;;;;;;;5101307;27;51124;-48
2022/06/02 18:22:52;;;;;;;;;11.75;10.00;;;;;;;;5101939;27;51566;-47
2022/06/02 18:25:53;;;;;;;;;9.25;8.75;;;;;;;;5101697;27;51077;-51
2022/06/02 18:29:03;;;;;;;;;13.75;10.00;;;;;;;;5101841;27;51147;-48
2022/06/02 18:31:54;;;;;;;;;14.00;9.50;;;;;;;;5076552;27;51236;-50
2022/06/02 18:34:56;;;;;;;;;10.75;9.50;;;;;;;;5101054;27;51168;-46
2022/06/02 18:37:59;;;;;;;;;15.50;12.75;;;;;;;;5099102;27;51338;-49
2022/06/02 18:41:04;;;;;;;;;11.75;11.25;;;;;;;;5099802;27;51466;-47
2022/06/02 18:44:04;;;;;;;;;10.75;10.25;;;;;;;;5100364;27;51256;-51
2022/06/02 18:47:11;;;;;;;;;12.75;9.75;;;;;;;;5100961;27;51258;-49
2022/06/02 18:50:17;;;;;;;;;12.00;10.00;;;;;;;;5100629;27;51591;-47
2022/06/02 18:53:19;;;;;;;;;9.00;7.75;;;;;;;;5084650;27;51156;-49
2022/06/02 18:56:22;;;;;;;;;11.25;9.50;;;;;;;;5100195;27;51179;-47
2022/06/02 18:59:19;;;;;;;;;15.00;10.50;;;;;;;;5100145;27;51203;-47
2022/06/02 19:02:36;;;;;;;;;12.00;10.00;;;;;;;;5099745;27;51148;-48
2022/06/02 19:05:20;;;;;;;;;11.75;10.00;;;;;;;;5100196;27;51103;-51
2022/06/02 19:15:35;;;;;;;;;11.75;8.00;;;;;;;;5017074;28;51273;-48
2022/06/02 19:18:38;;;;;;;;;4.75;3.50;;;;;;;;5007976;27;51545;-46
2022/06/02 19:21:41;;;;;;;;;11.25;8.50;;;;;;;;5099472;27;51142;-47
2022/06/02 19:24:44;;;;;;;;;9.75;8.50;;;;;;;;5100848;27;51122;-51
2022/06/02 19:27:58;;;;;;;;;13.25;9.50;;;;;;;;5099840;27;51199;-47
2022/06/02 19:31:00;;;;;;;;;10.75;10.75;;;;;;;;5101827;27;51078;-49
2022/06/02 19:33:47;;;;;;;;;10.50;8.75;;;;;;;;5099963;27;51246;-52
2022/06/02 19:36:41;;;;;;;;;12.00;10.00;;;;;;;;5094177;27;51484;-50
2022/06/02 19:39:44;;;;;;;;;12.25;11.50;;;;;;;;5098138;27;51154;-52
2022/06/02 19:42:38;;;;;;;;;17.00;12.00;;;;;;;;5098646;27;51097;-45
2022/06/02 19:45:35;;;;;;;;;12.00;10.75;;;;;;;;5099001;27;51318;-49